sensor_id;sensor_type;location;lat;lon;timestamp;temperature;humidity
24844;DHT22;12921;51.392;12.240;2022-07-29T17:05:59;26.50;99.90
24844;DHT22;12921;51.392;12.240;2022-07-29T17:08:25;26.30;99.90
24844;DHT22;12921;51.392;12.240;2022-07-29T17:10:50;26.20;99.90
24844;DHT22;12921;51.392;12.240;2022-07-29T17:13:16;26.00;99.90
24844;DHT22;12921;51.392;12.240;2022-07-29T17:15:42;26.00;99.90
24844;DHT22;12921;51.392;12.240;2022-07-29T17:18:08;25.90;99.90
24844;DHT22;12921;51.392;12.240;2022-07-29T17:20:35;25.80;99.90
24844;DHT22;12921;51.392;12.240;2022-07-29T17:23:01;25.60;99.90
24844;DHT22;12921;51.392;12.240;2022-07-29T17:25:27;25.50;99.90
24844;DHT22;12921;51.392;12.240;2022-07-29T17:27:53;25.50;99.90
24844;DHT22;12921;51.392;12.240;2022-07-29T17:30:20;25.50;99.90
24844;DHT22;12921;51.392;12.240;2022-07-29T17:32:46;25.50;99.90
24844;DHT22;12921;51.392;12.240;2022-07-29T17:35:12;25.60;99.90
24844;DHT22;12921;51.392;12.240;2022-07-29T17:37:57;25.60;99.90
24844;DHT22;12921;51.392;12.240;2022-07-29T17:40:22;25.70;99.90
24844;DHT22;12921;51.392;12.240;2022-07-29T17:42:48;25.70;99.90
24844;DHT22;12921;51.392;12.240;2022-07-29T17:45:14;25.80;99.90
24844;DHT22;12921;51.392;12.240;2022-07-29T17:47:40;25.70;99.90
24844;DHT22;12921;51.392;12.240;2022-07-29T17:50:06;25.70;99.90
24844;DHT22;12921;51.392;12.240;2022-07-29T17:52:32;25.70;99.90
24844;DHT22;12921;51.392;12.240;2022-07-29T17:54:58;25.60;99.90
24844;DHT22;12921;51.392;12.240;2022-07-29T17:57:23;25.50;99.90
24844;DHT22;12921;51.392;12.240;2022-07-29T17:59:49;25.40;99.90
24844;DHT22;12921;51.392;12.240;2022-07-29T18:02:15;25.40;99.90
24844;DHT22;12921;51.392;12.240;2022-07-29T18:04:42;25.30;99.90
24844;DHT22;12921;51.392;12.240;2022-07-29T18:07:07;25.30;99.90
24844;DHT22;12921;51.392;12.240;2022-07-29T18:09:33;25.30;99.90
24844;DHT22;12921;51.392;12.240;2022-07-29T18:11:58;25.20;99.90
24844;DHT22;12921;51.392;12.240;2022-07-29T18:14:24;25.20;99.90
24844;DHT22;12921;51.392;12.240;2022-07-29T18:16:50;25.10;99.90
24844;DHT22;12921;51.392;12.240;2022-07-29T18:19:15;25.00;99.90
24844;DHT22;12921;51.392;12.240;2022-07-29T18:21:41;25.00;99.90
24844;DHT22;12921;51.392;12.240;2022-07-29T18:24:07;25.00;99.90
24844;DHT22;12921;51.392;12.240;2022-07-29T18:26:33;24.90;99.90
24844;DHT22;12921;51.392;12.240;2022-07-29T18:28:58;24.80;99.90
24844;DHT22;12921;51.392;12.240;2022-07-29T18:31:24;24.80;99.90
24844;DHT22;12921;51.392;12.240;2022-07-29T18:33:50;24.80;99.90
24844;DHT22;12921;51.392;12.240;2022-07-29T18:36:15;24.70;99.90
24844;DHT22;12921;51.392;12.240;2022-07-29T18:38:42;24.70;99.90
24844;DHT22;12921;51.392;12.240;2022-07-29T18:41:08;24.60;99.90
24844;DHT22;12921;51.392;12.240;2022-07-29T18:43:35;24.60;99.90
24844;DHT22;12921;51.392;12.240;2022-07-29T18:46:00;24.50;99.90
24844;DHT22;12921;51.392;12.240;2022-07-29T18:48:26;24.50;99.90
24844;DHT22;12921;51.392;12.240;2022-07-29T18:50:52;24.40;99.90
24844;DHT22;12921;51.392;12.240;2022-07-29T18:53:17;24.40;99.90
24844;DHT22;12921;51.392;12.240;2022-07-29T18:55:44;24.40;99.90
24844;DHT22;12921;51.392;12.240;2022-07-29T18:58:10;24.30;99.90
24844;DHT22;12921;51.392;12.240;2022-07-29T19:00:36;24.20;99.90
24844;DHT22;12921;51.392;12.240;2022-07-29T19:03:01;24.20;99.90
24844;DHT22;12921;51.392;12.240;2022-07-29T19:05:27;24.10;99.90
24844;DHT22;12921;51.392;12.240;2022-07-29T19:07:53;23.90;99.90
24844;DHT22;12921;51.392;12.240;2022-07-29T19:10:20;23.90;99.90
24844;DHT22;12921;51.392;12.240;2022-07-29T19:12:46;23.70;99.90
24844;DHT22;12921;51.392;12.240;2022-07-29T19:15:12;23.70;99.90
24844;DHT22;12921;51.392;12.240;2022-07-29T19:17:38;23.60;99.90
24844;DHT22;12921;51.392;12.240;2022-07-29T19:20:04;23.60;99.90
24844;DHT22;12921;51.392;12.240;2022-07-29T19:22:30;23.60;99.90
24844;DHT22;12921;51.392;12.240;2022-07-29T19:24:57;23.60;99.90
24844;DHT22;12921;51.392;12.240;2022-07-29T19:27:23;23.50;99.90
24844;DHT22;12921;51.392;12.240;2022-07-29T19:29:48;23.50;99.90
24844;DHT22;12921;51.392;12.240;2022-07-29T19:32:14;23.50;99.90
24844;DHT22;12921;51.392;12.240;2022-07-29T19:34:40;23.40;99.90
24844;DHT22;12921;51.392;12.240;2022-07-29T19:37:07;23.40;99.90
24844;DHT22;12921;51.392;12.240;2022-07-29T19:39:33;23.40;99.90
24844;DHT22;12921;51.392;12.240;2022-07-29T19:41:59;23.40;99.90
24844;DHT22;12921;51.392;12.240;2022-07-29T19:44:26;23.30;99.90
24844;DHT22;12921;51.392;12.240;2022-07-29T19:46:51;23.30;99.90
24844;DHT22;12921;51.392;12.240;2022-07-29T19:49:18;23.20;99.90
24844;DHT22;12921;51.392;12.240;2022-07-29T19:51:43;23.20;99.90
24844;DHT22;12921;51.392;12.240;2022-07-29T19:54:09;23.20;99.90
24844;DHT22;12921;51.392;12.240;2022-07-29T19:56:35;23.20;99.90
24844;DHT22;12921;51.392;12.240;2022-07-29T19:59:02;23.10;99.90
24844;DHT22;12921;51.392;12.240;2022-07-29T20:01:27;23.10;99.90
24844;DHT22;12921;51.392;12.240;2022-07-29T20:03:53;23.10;99.90
24844;DHT22;12921;51.392;12.240;2022-07-29T20:06:19;23.10;99.90
24844;DHT22;12921;51.392;12.240;2022-07-29T20:08:45;23.00;99.90
24844;DHT22;12921;51.392;12.240;2022-07-29T20:11:10;23.00;99.90
24844;DHT22;12921;51.392;12.240;2022-07-29T20:13:36;23.00;99.90
24844;DHT22;12921;51.392;12.240;2022-07-29T20:16:02;23.00;99.90
24844;DHT22;12921;51.392;12.240;2022-07-29T20:18:30;23.00;99.90
24844;DHT22;12921;51.392;12.240;2022-07-29T20:20:56;23.00;99.90
24844;DHT22;12921;51.392;12.240;2022-07-29T20:23:24;23.00;99.90
24844;DHT22;12921;51.392;12.240;2022-07-29T20:25:50;22.90;99.90
24844;DHT22;12921;51.392;12.240;2022-07-29T20:28:16;22.90;99.90
24844;DHT22;12921;51.392;12.240;2022-07-29T20:30:41;22.90;99.90
24844;DHT22;12921;51.392;12.240;2022-07-29T20:33:07;22.80;99.90
24844;DHT22;12921;51.392;12.240;2022-07-29T20:35:33;22.80;99.90
24844;DHT22;12921;51.392;12.240;2022-07-29T20:37:59;22.70;99.90
24844;DHT22;12921;51.392;12.240;2022-07-29T20:40:25;22.70;99.90
24844;DHT22;12921;51.392;12.240;2022-07-29T20:42:52;22.70;99.90
24844;DHT22;12921;51.392;12.240;2022-07-29T20:45:18;22.60;99.90
24844;DHT22;12921;51.392;12.240;2022-07-29T20:47:44;22.60;99.90
24844;DHT22;12921;51.392;12.240;2022-07-29T20:50:10;22.60;99.90
24844;DHT22;12921;51.392;12.240;2022-07-29T20:52:36;22.50;99.90
24844;DHT22;12921;51.392;12.240;2022-07-29T20:55:08;22.50;99.90
24844;DHT22;12921;51.392;12.240;2022-07-29T20:57:33;22.50;99.90
24844;DHT22;12921;51.392;12.240;2022-07-29T20:59:59;22.50;99.90
24844;DHT22;12921;51.392;12.240;2022-07-29T21:02:25;22.50;99.90
24844;DHT22;12921;51.392;12.240;2022-07-29T21:04:50;22.50;99.90
24844;DHT22;12921;51.392;12.240;2022-07-29T21:07:16;22.40;99.90
24844;DHT22;12921;51.392;12.240;2022-07-29T21:09:42;22.40;99.90
24844;DHT22;12921;51.392;12.240;2022-07-29T21:12:07;22.40;99.90
24844;DHT22;12921;51.392;12.240;2022-07-29T21:14:36;22.30;99.90
24844;DHT22;12921;51.392;12.240;2022-07-29T21:17:01;22.30;99.90
24844;DHT22;12921;51.392;12.240;2022-07-29T21:19:30;22.20;99.90
24844;DHT22;12921;51.392;12.240;2022-07-29T21:21:56;22.30;99.90
24844;DHT22;12921;51.392;12.240;2022-07-29T21:24:21;22.20;99.90
24844;DHT22;12921;51.392;12.240;2022-07-29T21:26:47;22.10;99.90
24844;DHT22;12921;51.392;12.240;2022-07-29T21:29:12;21.90;99.90
24844;DHT22;12921;51.392;12.240;2022-07-29T21:31:38;21.60;99.90
24844;DHT22;12921;51.392;12.240;2022-07-29T21:34:05;21.40;99.90
24844;DHT22;12921;51.392;12.240;2022-07-29T21:36:31;21.10;99.90
24844;DHT22;12921;51.392;12.240;2022-07-29T21:38:56;20.90;99.90
24844;DHT22;12921;51.392;12.240;2022-07-29T21:41:22;20.70;99.90
24844;DHT22;12921;51.392;12.240;2022-07-29T21:43:48;20.40;99.90
24844;DHT22;12921;51.392;12.240;2022-07-29T21:46:14;20.20;99.90
24844;DHT22;12921;51.392;12.240;2022-07-29T21:48:41;20.00;99.90
24844;DHT22;12921;51.392;12.240;2022-07-29T21:51:06;19.80;99.90
24844;DHT22;12921;51.392;12.240;2022-07-29T21:53:32;19.70;99.90
24844;DHT22;12921;51.392;12.240;2022-07-29T21:55:58;19.60;99.90
24844;DHT22;12921;51.392;12.240;2022-07-29T21:58:23;19.40;99.90
24844;DHT22;12921;51.392;12.240;2022-07-29T22:00:49;19.30;99.90
24844;DHT22;12921;51.392;12.240;2022-07-29T22:03:15;19.20;99.90
24844;DHT22;12921;51.392;12.240;2022-07-29T22:05:41;19.10;99.90
24844;DHT22;12921;51.392;12.240;2022-07-29T22:08:06;18.90;99.90
24844;DHT22;12921;51.392;12.240;2022-07-29T22:10:32;18.90;99.90
24844;DHT22;12921;51.392;12.240;2022-07-29T22:12:59;18.80;99.90
24844;DHT22;12921;51.392;12.240;2022-07-29T22:15:26;18.70;99.90
24844;DHT22;12921;51.392;12.240;2022-07-29T22:17:52;18.70;99.90
24844;DHT22;12921;51.392;12.240;2022-07-29T22:20:19;18.60;99.90
24844;DHT22;12921;51.392;12.240;2022-07-29T22:22:45;18.50;99.90
24844;DHT22;12921;51.392;12.240;2022-07-29T22:25:11;18.50;99.90
24844;DHT22;12921;51.392;12.240;2022-07-29T22:27:37;18.40;99.90
24844;DHT22;12921;51.392;12.240;2022-07-29T22:30:07;18.30;99.90
24844;DHT22;12921;51.392;12.240;2022-07-29T22:32:33;18.40;99.90
24844;DHT22;12921;51.392;12.240;2022-07-29T22:34:59;18.40;99.90
24844;DHT22;12921;51.392;12.240;2022-07-29T22:37:24;18.30;99.90
24844;DHT22;12921;51.392;12.240;2022-07-29T22:39:50;18.30;99.90
24844;DHT22;12921;51.392;12.240;2022-07-29T22:42:16;18.20;99.90
24844;DHT22;12921;51.392;12.240;2022-07-29T22:44:41;18.30;99.90
24844;DHT22;12921;51.392;12.240;2022-07-29T22:47:07;18.30;99.90
24844;DHT22;12921;51.392;12.240;2022-07-29T22:49:33;18.20;99.90
24844;DHT22;12921;51.392;12.240;2022-07-29T22:51:58;18.20;99.90
24844;DHT22;12921;51.392;12.240;2022-07-29T22:54:25;18.20;99.90
24844;DHT22;12921;51.392;12.240;2022-07-29T22:56:50;18.10;99.90
24844;DHT22;12921;51.392;12.240;2022-07-29T22:59:16;18.10;99.90
24844;DHT22;12921;51.392;12.240;2022-07-29T23:01:42;18.10;99.90
24844;DHT22;12921;51.392;12.240;2022-07-29T23:04:07;18.00;99.90
24844;DHT22;12921;51.392;12.240;2022-07-29T23:06:33;18.00;99.90
24844;DHT22;12921;51.392;12.240;2022-07-29T23:08:59;18.00;99.90
24844;DHT22;12921;51.392;12.240;2022-07-29T23:11:24;17.90;99.90
24844;DHT22;12921;51.392;12.240;2022-07-29T23:13:50;17.90;99.90
24844;DHT22;12921;51.392;12.240;2022-07-29T23:16:15;17.90;99.90
24844;DHT22;12921;51.392;12.240;2022-07-29T23:18:41;17.90;99.90
24844;DHT22;12921;51.392;12.240;2022-07-29T23:21:07;17.90;99.90
24844;DHT22;12921;51.392;12.240;2022-07-29T23:23:33;17.80;99.90
24844;DHT22;12921;51.392;12.240;2022-07-29T23:25:58;17.80;99.90
24844;DHT22;12921;51.392;12.240;2022-07-29T23:28:24;17.80;99.90
24844;DHT22;12921;51.392;12.240;2022-07-29T23:30:50;17.70;99.90
24844;DHT22;12921;51.392;12.240;2022-07-29T23:33:15;17.70;99.90
24844;DHT22;12921;51.392;12.240;2022-07-29T23:35:41;17.70;99.90
24844;DHT22;12921;51.392;12.240;2022-07-29T23:38:07;17.70;99.90
24844;DHT22;12921;51.392;12.240;2022-07-29T23:40:32;17.70;99.90
24844;DHT22;12921;51.392;12.240;2022-07-29T23:42:58;17.60;99.90
24844;DHT22;12921;51.392;12.240;2022-07-29T23:45:24;17.60;99.90
24844;DHT22;12921;51.392;12.240;2022-07-29T23:47:49;17.60;99.90
24844;DHT22;12921;51.392;12.240;2022-07-29T23:50:15;17.60;99.90
24844;DHT22;12921;51.392;12.240;2022-07-29T23:52:41;17.60;99.90
24844;DHT22;12921;51.392;12.240;2022-07-29T23:55:08;17.60;99.90
24844;DHT22;12921;51.392;12.240;2022-07-29T23:57:34;17.60;99.90
24844;DHT22;12921;51.392;12.240;2022-07-29T23:59:59;17.60;99.90
